Tuesday, January 15, 2019, 6:28 PM EST
Back to Local

KWST, Westerly State Airport

Location: Westerly, RI, United States Lat: 41.35
Local Time: 6:28 PM EST (23:28 GMT) Lon: -71.8
Time Zone: US/Eastern Elev: 82 ft

Show me the last for .
Show Decoded

2019-01-15 17:53 METAR KWST 152253Z AUTO 00000KT 10SM CLR 01/M09 A3010 RMK AO2 SLP193 T00061089 =
2019-01-15 16:53 METAR KWST 152153Z AUTO 30003KT 10SM CLR 02/M09 A3009 RMK AO2 SLP189 T00171089 =
2019-01-15 15:53 METAR KWST 152053Z AUTO 30004KT 10SM CLR 02/M09 A3008 RMK AO2 SLP187 T00221089
                 53004 =
2019-01-15 14:53 METAR KWST 151953Z AUTO 31005KT 10SM CLR 03/M10 A3008 RMK AO2 SLP185 T00281100 =
2019-01-15 13:53 METAR KWST 151853Z AUTO VRB05KT 10SM CLR 03/M11 A3007 RMK AO2 SLP182 T00331106 =
2019-01-15 12:53 METAR KWST 151753Z AUTO 33007KT 10SM CLR 03/M11 A3007 RMK AO2 SLP183 T00281111
                 10028 21078 58018 =
2019-01-15 11:53 METAR KWST 151653Z AUTO 32007KT 10SM CLR 02/M11 A3009 RMK AO2 SLP191 T00171111 =
2019-01-15 10:53 METAR KWST 151553Z AUTO 33007KT 10SM CLR 01/M12 A3012 RMK AO2 SLP198 T00061122 =
2019-01-15 09:53 METAR KWST 151453Z AUTO 34009KT 10SM CLR 00/M12 A3012 RMK AO2 SLP201 T00001117
                 53013 =
2019-01-15 08:53 METAR KWST 151353Z AUTO 34005KT 10SM CLR M02/M11 A3011 RMK AO2 SLP196 T10221106
                 =
2019-01-15 07:53 METAR KWST 151253Z AUTO 00000KT 10SM CLR M07/M10 A3009 RMK AO2 SLP191 T10671100
                 =
2019-01-15 06:53 METAR KWST 151153Z AUTO 00000KT 10SM CLR M06/M12 A3008 RMK AO2 SLP188 T10611117
                 11044 21072 53009 =
2019-01-15 05:53 METAR KWST 151053Z AUTO 00000KT 10SM CLR M06/M11 A3007 RMK AO2 SLP183 T10611111
                 =
2019-01-15 04:53 METAR KWST 150953Z AUTO 01004KT 10SM CLR M07/M11 A3006 RMK AO2 SLP178 T10671111
                 =
2019-01-15 03:53 METAR KWST 150853Z AUTO 34004KT 10SM CLR M05/M11 A3006 RMK AO2 SLP179 T10501106
                 58008 =
2019-01-15 02:53 METAR KWST 150753Z AUTO 32003KT 10SM CLR M05/M10 A3007 RMK AO2 SLP183 T10501100
                 =
2019-01-15 01:53 METAR KWST 150653Z AUTO 33003KT 10SM CLR M07/M09 A3008 RMK AO2 SLP185 T10721094
                 =
2019-01-15 00:53 METAR KWST 150553Z AUTO 00000KT 10SM CLR M06/M09 A3008 RMK AO2 SLP187 I6000
                 T10561089 11033 21072 58010 =
2019-01-14 23:53 METAR KWST 150453Z AUTO 00000KT 10SM CLR M07/M09 A3009 RMK AO2 SLP189 I1000
                 T10671089 400221072 =
2019-01-14 22:53 METAR KWST 150353Z AUTO 00000KT 10SM CLR M07/M09 A3011 RMK AO2 SLP196 T10671089
                 =
2019-01-14 21:53 METAR KWST 150253Z AUTO 00000KT 10SM CLR M06/M08 A3011 RMK AO2 SLP197 T10611083
                 55004 =
2019-01-14 20:53 METAR KWST 150153Z AUTO 00000KT 10SM CLR M06/M08 A3011 RMK AO2 SLP197 T10561083
                 =
2019-01-14 19:53 METAR KWST 150053Z AUTO 00000KT 10SM CLR M04/M08 A3011 RMK AO2 SLP197 T10441078
                 =
2019-01-14 18:53 METAR KWST 142353Z AUTO 00000KT 10SM CLR M03/M08 A3012 RMK AO2 SLP201 T10331078
                 10022 21033 56002 =

Support USWX by starting your Amazon purchase here.